Archival Weather

Norman Y Mineta San Jose Intl

San Jose, California (KSJC)

Report from: Tuesday, February 13, 2024 9:53 AM PST
Current time: Friday, June 21, 2024 1:57 AM PDT

Current weather – Weather history – Daily summaries
Weather forecast

Temperature12.8°C (55.0°F)
Dew point7.8°C (46.0°F)
Winds 4 kts (2.1 m/s, 4.6 mph) South (190°)
Visibility10 mi. (16.1 km)
Clouds Few clouds 1,700 ft. (518 m)
Few clouds 3,000 ft. (914 m)
Few clouds 9,000 ft. (2,743 m)
Altimeter30.05 in.Hg (1018 mB)
Relative humidity72 %
Density altitude-253 ft. (-77 m)
Sea-level pressure101.8 kPa (1018 mB, 30.05 in.Hg)
Max temp last 6 hours12.8°C (55.0°F)
Min temp last 6 hours7.8°C (46.0°F)
Remarks Automated weather observing station with precipitation discriminator
Pressure falling more quickly
Flight conditions Visual Meteorological Conditions
Raw dataKSJC 131753Z 19004KT 10SM FEW017 FEW030 FEW090 13/08 A3005 RMK AO2 SLP175 T01280078 10128 20078 58001
An error has occurred. This application may no longer respond until reloaded. Reload 🗙